Aviation Digital Data Service (ADDS)

Output produced by METARs form (0120 UTC 29 May 2022)
found at http://www.aviationweather.gov/metar/data/
 
KDRO 290053Z AUTO 27014KT 10SM CLR 24/M11 A2979 RMK AO2 PK WND 28031/0033 WSHFT 2348 SLP011 T02391111
KDRO 282340Z 2900/2924 25018G28KT P6SM SCT150 BKN200 
     FM290700 24012G22KT P6SM SCT150 BKN200 
     FM291100 21007KT P6SM SCT150 BKN200 
     FM291700 24020G30KT P6SM SCT080 BKN100
       
KFMN 290053Z 25018G25KT 10SM CLR 28/M13 A2969 RMK AO2 PK WND 29029/0037 SLP992 T02781133
KFMN 282336Z 2900/2924 26025G35KT P6SM BKN200 
     FM290300 25018G28KT P6SM BKN200 
     FM291000 18010KT P6SM SCT150 
     FM291500 21015G23KT P6SM FEW150 
     FM292000 24023G33KT P6SM SCT130